Time;durP1;ratioP1;P1;durP2;ratioP2;P2;SDS_P1;SDS_P2;PMS_P1;PMS_P2;Temp;Humidity;BMP_temperature;BMP_pressure;BME280_temperature;BME280_humidity;BME280_pressure;Samples;Min_cycle;Max_cycle;Signal;HPM_P1;HPM_P2
2021/03/01 00:00:14;;;;;;;27.75;21.00;;;8.70;84.40;9.10;100691.00;;;;340020;28;94253;-83
2021/03/01 00:00:25;;;;;;;29.85;21.73;;;8.80;84.40;9.20;100692.00;;;;339943;28;91939;-83
2021/03/01 00:00:36;;;;;;;31.17;21.33;;;8.80;84.40;9.30;100704.00;;;;342613;28;97487;-83
2021/03/01 00:00:48;;;;;;;30.75;21.25;;;8.80;84.40;9.00;100693.00;;;;342518;28;92009;-84
2021/03/01 00:00:59;;;;;;;29.42;21.15;;;8.80;84.50;9.10;100694.00;;;;341129;28;95858;-83
2021/03/01 00:01:11;;;;;;;28.55;20.80;;;8.80;84.40;9.20;100696.00;;;;340906;28;92057;-83
2021/03/01 00:01:23;;;;;;;27.60;20.50;;;8.80;84.90;9.30;100693.00;;;;339938;28;96854;-84
2021/03/01 00:01:35;;;;;;;27.92;20.00;;;8.80;84.40;9.30;100701.00;;;;339832;28;91610;-83
2021/03/01 00:01:47;;;;;;;26.75;20.23;;;8.80;84.40;9.30;100703.00;;;;341444;28;94003;-83
2021/03/01 00:01:58;;;;;;;25.58;20.35;;;8.90;84.40;9.40;100698.00;;;;341141;28;91195;-83
2021/03/01 00:02:11;;;;;;;23.92;19.75;;;8.90;84.40;9.30;100692.00;;;;341254;28;95590;-84
2021/03/01 00:02:23;;;;;;;24.17;19.50;;;8.90;84.30;9.20;100699.00;;;;340916;28;92167;-83
2021/03/01 00:02:34;;;;;;;26.13;19.80;;;8.90;84.30;9.20;100697.00;;;;342644;28;96785;-83
2021/03/01 00:02:46;;;;;;;28.27;20.10;;;8.90;83.90;9.20;100697.00;;;;342485;28;92159;-83
2021/03/01 00:02:57;;;;;;;29.17;20.13;;;8.90;83.80;9.10;100700.00;;;;341141;28;97438;-84
2021/03/01 00:03:09;;;;;;;28.30;20.00;;;8.90;83.90;8.90;100704.00;;;;341144;28;91968;-84
2021/03/01 00:03:20;;;;;;;25.64;20.48;;;8.90;84.20;8.80;100695.00;;;;342481;28;97082;-83
2021/03/01 00:03:32;;;;;;;25.48;20.90;;;8.90;84.20;8.90;100700.00;;;;342593;28;91357;-84
2021/03/01 00:03:43;;;;;;;23.23;20.15;;;8.90;84.30;8.80;100702.00;;;;341270;28;96884;-83
2021/03/01 00:03:55;;;;;;;24.65;19.73;;;8.80;84.20;9.00;100704.00;;;;343975;28;91994;-83
2021/03/01 00:04:06;;;;;;;24.60;19.83;;;8.80;84.00;9.00;100695.00;;;;341277;28;94275;-83
2021/03/01 00:04:17;;;;;;;25.65;20.10;;;8.80;84.10;9.20;100700.00;;;;341107;28;92016;-83
2021/03/01 00:04:29;;;;;;;25.35;19.40;;;8.90;84.20;9.30;100698.00;;;;343731;28;97584;-83
2021/03/01 00:04:40;;;;;;;24.20;19.02;;;8.80;84.10;9.30;100692.00;;;;340887;28;91820;-83
2021/03/01 00:04:51;;;;;;;24.27;19.13;;;8.80;84.20;9.30;100696.00;;;;341176;28;97058;-83
2021/03/01 00:05:04;;;;;;;24.55;19.38;;;8.80;84.10;9.10;100702.00;;;;343877;28;91182;-83
2021/03/01 00:05:15;;;;;;;25.25;19.83;;;8.80;84.40;9.10;100695.00;;;;341476;28;97294;-84
2021/03/01 00:05:26;;;;;;;25.02;19.73;;;8.80;84.30;9.10;100698.00;;;;342187;28;91068;-83
2021/03/01 00:05:38;;;;;;;24.98;19.48;;;8.80;84.30;9.10;100699.00;;;;340016;28;93786;-83
2021/03/01 00:05:50;;;;;;;25.42;20.00;;;8.80;84.30;8.90;100699.00;;;;341175;28;91981;-83
2021/03/01 00:06:01;;;;;;;26.90;19.38;;;8.80;84.40;8.80;100693.00;;;;344069;28;93466;-83
2021/03/01 00:06:13;;;;;;;27.38;19.30;;;8.80;84.50;9.00;100706.00;;;;341008;28;91277;-83
2021/03/01 00:06:24;;;;;;;27.30;19.58;;;8.80;85.00;9.00;100700.00;;;;339923;28;97385;-83
2021/03/01 00:06:36;;;;;;;28.73;20.67;;;8.80;84.40;9.00;100693.00;;;;342360;28;92250;-83
2021/03/01 00:06:47;;;;;;;27.80;20.77;;;8.80;84.40;9.10;100698.00;;;;340002;28;94511;-83
2021/03/01 00:06:58;;;;;;;26.65;20.17;;;8.80;84.40;9.20;100695.00;;;;339741;28;92111;-83
2021/03/01 00:07:10;;;;;;;23.52;19.08;;;8.80;84.60;9.30;100701.00;;;;341287;28;96595;-84
2021/03/01 00:07:21;;;;;;;22.33;18.40;;;8.80;84.50;9.10;100693.00;;;;341233;28;91241;-83
2021/03/01 00:07:32;;;;;;;21.88;18.63;;;8.80;84.40;8.80;100699.00;;;;341287;28;96133;-84
2021/03/01 00:07:44;;;;;;;24.80;18.75;;;8.80;84.40;9.10;100697.00;;;;341156;28;92078;-83
2021/03/01 00:07:55;;;;;;;27.40;19.55;;;8.80;84.40;9.10;100694.00;;;;339964;28;94310;-83
2021/03/01 00:08:07;;;;;;;27.33;18.85;;;8.80;84.40;9.00;100693.00;;;;339877;28;92680;-83
2021/03/01 00:08:18;;;;;;;24.58;18.58;;;8.80;84.40;9.10;100698.00;;;;339348;28;97736;-83
2021/03/01 00:08:30;;;;;;;22.88;18.45;;;8.80;84.50;9.00;100700.00;;;;339801;28;92172;-83
2021/03/01 00:08:41;;;;;;;23.00;18.85;;;8.80;84.50;9.00;100699.00;;;;341555;28;94809;-83
2021/03/01 00:08:52;;;;;;;25.30;19.58;;;8.90;84.70;9.10;100695.00;;;;342422;28;92095;-83
2021/03/01 00:09:05;;;;;;;24.85;19.75;;;8.80;84.50;9.20;100700.00;;;;339818;28;94858;-84
2021/03/01 00:09:16;;;;;;;22.38;19.15;;;8.90;84.40;9.20;100698.00;;;;342306;28;91408;-83
2021/03/01 00:09:27;;;;;;;23.30;18.92;;;8.80;84.10;9.30;100703.00;;;;339903;28;96629;-84
2021/03/01 00:09:39;;;;;;;22.75;19.05;;;8.80;84.10;9.30;100698.00;;;;339801;28;91208;-84
2021/03/01 00:09:50;;;;;;;21.38;18.35;;;8.80;84.00;9.30;100700.00;;;;339932;28;96481;-83
2021/03/01 00:10:04;;;;;;;21.27;18.38;;;8.80;84.10;9.20;100699.00;;;;341000;28;92079;-83
2021/03/01 00:10:16;;;;;;;22.73;19.15;;;8.80;84.10;9.10;100699.00;;;;341148;28;97439;-83
2021/03/01 00:10:27;;;;;;;24.75;20.02;;;8.80;84.60;8.90;100708.00;;;;341196;28;92376;-83
2021/03/01 00:10:38;;;;;;;26.23;19.77;;;8.80;84.60;8.80;100694.00;;;;341241;28;97073;-83
2021/03/01 00:10:50;;;;;;;27.00;19.95;;;8.80;84.60;8.90;100699.00;;;;342563;28;92068;-83
2021/03/01 00:11:01;;;;;;;25.80;19.80;;;8.80;84.80;8.80;100703.00;;;;338517;28;97617;-83
2021/03/01 00:11:12;;;;;;;25.42;19.88;;;8.80;85.00;8.90;100694.00;;;;338605;28;91304;-84
2021/03/01 00:11:24;;;;;;;24.25;19.58;;;8.80;84.80;8.80;100700.00;;;;338666;28;96429;-83
2021/03/01 00:11:35;;;;;;;23.73;19.65;;;8.80;84.70;8.80;100705.00;;;;341197;28;93046;-83
2021/03/01 00:11:47;;;;;;;24.50;19.48;;;8.70;85.10;8.90;100702.00;;;;342477;28;96908;-84
2021/03/01 00:11:58;;;;;;;25.33;20.08;;;8.70;84.50;8.90;100702.00;;;;341294;28;91996;-84
2021/03/01 00:12:10;;;;;;;25.15;20.42;;;8.70;84.30;8.80;100702.00;;;;342659;28;94568;-84
2021/03/01 00:12:21;;;;;;;22.98;19.67;;;8.70;84.40;8.90;100690.00;;;;339637;28;92034;-85
2021/03/01 00:12:33;;;;;;;21.73;19.38;;;8.70;84.40;8.80;100694.00;;;;341078;28;97320;-84
2021/03/01 00:12:44;;;;;;;22.25;19.52;;;8.70;84.40;8.80;100701.00;;;;339870;28;91980;-83
2021/03/01 00:12:56;;;;;;;24.77;19.83;;;8.70;84.50;8.80;100696.00;;;;339869;28;94553;-83
2021/03/01 00:13:07;;;;;;;25.45;19.77;;;8.70;84.60;8.70;100699.00;;;;341154;28;91381;-84
2021/03/01 00:13:19;;;;;;;25.73;20.40;;;8.70;84.70;8.60;100712.00;;;;339778;28;95231;-83
2021/03/01 00:13:31;;;;;;;24.98;21.13;;;8.70;84.80;8.50;100703.00;;;;341010;28;92037;-83
2021/03/01 00:13:42;;;;;;;27.42;21.25;;;8.60;85.00;8.50;100705.00;;;;343993;28;94519;-83
2021/03/01 00:13:53;;;;;;;26.48;20.60;;;8.60;85.10;8.50;100700.00;;;;342545;28;92079;-84
2021/03/01 00:14:05;;;;;;;27.13;20.35;;;8.60;85.00;8.50;100700.00;;;;341228;28;96958;-83
2021/03/01 00:14:16;;;;;;;25.77;19.95;;;8.60;85.00;8.50;100703.00;;;;339994;28;92232;-83
2021/03/01 00:14:27;;;;;;;26.65;20.90;;;8.60;85.00;8.50;100697.00;;;;341839;28;95725;-83
2021/03/01 00:14:39;;;;;;;27.73;20.92;;;8.60;84.90;8.50;100707.00;;;;340942;28;91165;-84
2021/03/01 00:14:50;;;;;;;27.17;21.25;;;8.60;84.80;8.50;100706.00;;;;338653;28;94524;-83
2021/03/01 00:15:03;;;;;;;27.40;21.40;;;8.60;84.80;8.60;100704.00;;;;339776;28;91310;-83
2021/03/01 00:15:15;;;;;;;27.55;21.27;;;8.60;84.80;8.50;100704.00;;;;341681;28;93568;-83
2021/03/01 00:15:27;;;;;;;27.08;20.45;;;8.50;84.90;8.60;100706.00;;;;341271;28;91982;-84
2021/03/01 00:15:38;;;;;;;23.70;19.68;;;8.50;84.90;8.60;100709.00;;;;343977;28;94553;-83
2021/03/01 00:15:50;;;;;;;26.17;20.27;;;8.50;84.70;8.60;100704.00;;;;342518;28;91995;-83
2021/03/01 00:16:02;;;;;;;29.20;21.25;;;8.50;84.80;8.60;100707.00;;;;341250;28;97661;-83
2021/03/01 00:16:14;;;;;;;29.52;22.40;;;8.50;84.80;8.60;100704.00;;;;339786;28;92077;-84
2021/03/01 00:16:30;;;;;;;27.90;21.30;;;8.50;85.00;8.50;100711.00;;;;339888;28;97462;-83
2021/03/01 00:16:41;;;;;;;26.30;19.98;;;8.50;85.00;8.50;100697.00;;;;339815;28;92154;-83
2021/03/01 00:16:53;;;;;;;25.23;19.52;;;8.50;85.00;8.50;100703.00;;;;341198;28;96894;-83
2021/03/01 00:17:04;;;;;;;28.25;20.75;;;8.40;85.00;8.50;100704.00;;;;339736;28;91363;-83
2021/03/01 00:17:16;;;;;;;29.38;21.70;;;8.40;85.20;8.40;100710.00;;;;339234;28;96733;-86
2021/03/01 00:17:28;;;;;;;27.98;21.25;;;8.40;85.30;8.40;100703.00;;;;341139;28;91983;-84
2021/03/01 00:17:39;;;;;;;28.45;21.45;;;8.40;85.20;8.50;100700.00;;;;342505;28;94096;-84
2021/03/01 00:17:51;;;;;;;29.70;21.77;;;8.40;85.00;8.60;100706.00;;;;342516;28;91972;-83
2021/03/01 00:18:03;;;;;;;31.72;22.70;;;8.40;84.90;8.60;100698.00;;;;342660;28;94976;-83
2021/03/01 00:18:14;;;;;;;29.67;21.75;;;8.40;85.10;8.60;100708.00;;;;342276;28;92335;-83
2021/03/01 00:18:26;;;;;;;25.48;20.23;;;8.40;85.00;8.60;100699.00;;;;341387;28;93500;-83
2021/03/01 00:18:37;;;;;;;23.58;20.30;;;8.40;85.10;8.50;100707.00;;;;339854;28;92016;-83
2021/03/01 00:18:49;;;;;;;23.52;20.33;;;8.40;85.40;8.60;100711.00;;;;339897;28;96464;-83
2021/03/01 00:19:00;;;;;;;23.83;21.27;;;8.40;85.20;8.60;100705.00;;;;342621;28;91264;-83
2021/03/01 00:19:12;;;;;;;23.58;20.23;;;8.40;85.20;8.60;100709.00;;;;341261;28;95082;-85
2021/03/01 00:19:23;;;;;;;25.10;20.83;;;8.40;85.40;8.70;100705.00;;;;341327;28;91855;-83
2021/03/01 00:19:34;;;;;;;25.63;20.95;;;8.40;85.40;8.60;100709.00;;;;341211;28;95183;-83
2021/03/01 00:19:46;;;;;;;24.25;21.15;;;8.40;85.30;8.50;100706.00;;;;342570;28;92139;-83
2021/03/01 00:19:57;;;;;;;23.98;20.64;;;8.40;85.60;8.60;100712.00;;;;342598;28;96907;-83
2021/03/01 00:20:13;;;;;;;25.02;20.30;;;8.40;85.50;8.60;100706.00;;;;338212;28;91988;-84
2021/03/01 00:20:24;;;;;;;25.75;20.63;;;8.40;85.50;8.70;100702.00;;;;343639;28;97170;-83
2021/03/01 00:20:36;;;;;;;25.45;20.40;;;8.40;85.30;8.80;100709.00;;;;341211;28;91934;-83
2021/03/01 00:20:47;;;;;;;25.02;19.52;;;8.40;85.40;8.70;100714.00;;;;342211;28;96608;-84
2021/03/01 00:20:58;;;;;;;27.23;19.67;;;8.40;85.40;8.80;100702.00;;;;342561;28;90447;-83
2021/03/01 00:21:10;;;;;;;27.70;20.83;;;8.40;85.40;8.60;100714.00;;;;339826;28;96005;-84
2021/03/01 00:21:21;;;;;;;30.98;21.88;;;8.40;85.40;8.60;100703.00;;;;342595;28;91915;-84
2021/03/01 00:21:32;;;;;;;28.85;21.52;;;8.40;85.60;8.60;100707.00;;;;341074;28;97061;-83
2021/03/01 00:21:44;;;;;;;26.42;20.83;;;8.40;85.80;8.60;100703.00;;;;341178;28;93031;-83
2021/03/01 00:21:55;;;;;;;23.50;20.63;;;8.40;85.50;8.50;100706.00;;;;341337;28;94585;-83
2021/03/01 00:22:06;;;;;;;24.23;20.77;;;8.40;85.50;8.50;100701.00;;;;339956;28;91914;-83
2021/03/01 00:22:18;;;;;;;25.80;21.33;;;8.40;85.50;8.60;100707.00;;;;342503;28;97211;-83
2021/03/01 00:22:29;;;;;;;26.42;21.00;;;8.40;85.40;8.60;100704.00;;;;342671;28;91978;-83
2021/03/01 00:22:41;;;;;;;24.65;20.08;;;8.40;85.30;8.70;100703.00;;;;339857;28;97466;-84
2021/03/01 00:22:52;;;;;;;27.83;20.77;;;8.40;85.20;8.70;100702.00;;;;340824;28;91385;-82
2021/03/01 00:23:04;;;;;;;30.17;21.70;;;8.40;85.30;8.70;100700.00;;;;345374;28;94036;-83
2021/03/01 00:23:15;;;;;;;29.58;21.98;;;8.40;85.20;8.80;100711.00;;;;341733;28;92213;-84
2021/03/01 00:23:26;;;;;;;27.48;21.38;;;8.40;85.20;8.60;100707.00;;;;341726;28;93051;-83
2021/03/01 00:23:38;;;;;;;26.88;21.40;;;8.40;85.40;8.60;100703.00;;;;342470;28;92056;-83
2021/03/01 00:23:49;;;;;;;25.75;21.35;;;8.40;85.50;8.60;100704.00;;;;342597;28;97707;-83
2021/03/01 00:24:01;;;;;;;24.38;20.58;;;8.40;85.80;8.50;100710.00;;;;341256;28;91890;-83
2021/03/01 00:24:12;;;;;;;25.10;20.63;;;8.40;85.60;8.40;100709.00;;;;341132;28;97438;-84
2021/03/01 00:24:24;;;;;;;26.52;21.00;;;8.40;85.70;8.40;100703.00;;;;341126;28;92034;-84
2021/03/01 00:24:35;;;;;;;27.33;21.27;;;8.40;85.70;8.40;100704.00;;;;339888;28;97527;-83
2021/03/01 00:24:47;;;;;;;26.92;21.08;;;8.40;85.80;8.40;100707.00;;;;341145;28;91251;-85
2021/03/01 00:24:58;;;;;;;25.92;20.33;;;8.40;85.80;8.30;100695.00;;;;341220;28;96258;-83
2021/03/01 00:25:10;;;;;;;24.88;20.20;;;8.40;86.10;8.40;100708.00;;;;339799;28;91180;-83
2021/03/01 00:25:22;;;;;;;25.67;20.52;;;8.40;86.10;8.30;100718.00;;;;339850;28;97455;-84
2021/03/01 00:25:33;;;;;;;27.77;20.98;;;8.40;86.10;8.30;100711.00;;;;339587;28;92049;-84
2021/03/01 00:25:45;;;;;;;27.58;21.48;;;8.40;86.20;8.40;100704.00;;;;341200;28;96895;-83
2021/03/01 00:25:56;;;;;;;27.45;21.42;;;8.40;86.00;8.40;100709.00;;;;339935;28;92018;-83
2021/03/01 00:26:07;;;;;;;25.40;20.73;;;8.40;86.70;8.30;100704.00;;;;339896;28;97225;-83
2021/03/01 00:26:19;;;;;;;25.90;20.88;;;8.30;86.30;8.40;100700.00;;;;338915;28;92162;-83
2021/03/01 00:26:30;;;;;;;26.23;21.20;;;8.30;86.40;8.40;100701.00;;;;339823;28;94727;-83
2021/03/01 00:26:41;;;;;;;24.10;20.65;;;8.40;86.20;8.40;100700.00;;;;339769;28;91301;-83
2021/03/01 00:26:53;;;;;;;24.95;20.95;;;8.30;86.20;8.60;100697.00;;;;341254;28;93863;-83
2021/03/01 00:27:04;;;;;;;25.20;20.92;;;8.30;86.10;8.60;100698.00;;;;341174;28;92181;-83
2021/03/01 00:27:15;;;;;;;27.25;20.83;;;8.40;86.10;8.50;100706.00;;;;341823;28;97077;-83
2021/03/01 00:27:27;;;;;;;25.60;20.00;;;8.40;86.10;8.40;100703.00;;;;341074;28;92113;-87
2021/03/01 00:27:38;;;;;;;25.83;20.38;;;8.40;86.50;8.30;100704.00;;;;339990;28;94535;-83
2021/03/01 00:27:50;;;;;;;28.95;21.50;;;8.30;86.40;8.40;100708.00;;;;339819;28;92021;-83
2021/03/01 00:28:01;;;;;;;28.60;21.65;;;8.30;86.30;8.40;100696.00;;;;338589;28;97245;-83
2021/03/01 00:28:12;;;;;;;28.08;20.67;;;8.30;86.30;8.40;100709.00;;;;341168;28;92356;-83
2021/03/01 00:28:24;;;;;;;24.77;19.67;;;8.30;86.30;8.60;100704.00;;;;338671;28;94315;-83
2021/03/01 00:28:35;;;;;;;25.25;19.10;;;8.30;86.20;8.70;100700.00;;;;339552;28;91309;-83
2021/03/01 00:28:47;;;;;;;26.23;19.63;;;8.40;86.50;8.50;100703.00;;;;341145;28;96392;-84
2021/03/01 00:28:58;;;;;;;26.25;20.20;;;8.40;86.70;8.30;100701.00;;;;342315;28;92191;-83
2021/03/01 00:29:09;;;;;;;26.42;21.15;;;8.30;86.60;8.50;100696.00;;;;339757;28;93305;-84
2021/03/01 00:29:33;;;;;;;28.50;20.88;;;8.30;86.50;8.60;100705.00;;;;342227;28;92100;-84
2021/03/01 00:29:44;;;;;;;28.35;20.20;;;8.40;86.30;8.50;100705.00;;;;343981;28;94572;-83
2021/03/01 00:29:55;;;;;;;24.48;19.80;;;8.40;86.20;8.40;100694.00;;;;342504;28;92051;-83
2021/03/01 00:30:09;;;;;;;25.58;20.38;;;8.40;86.30;8.50;100702.00;;;;339917;28;97040;-84
2021/03/01 00:30:21;;;;;;;26.73;21.35;;;8.30;86.20;8.50;100700.00;;;;341053;28;92590;-83
2021/03/01 00:30:32;;;;;;;25.27;21.55;;;8.30;86.10;8.60;100699.00;;;;338522;28;97289;-84
2021/03/01 00:30:44;;;;;;;24.38;20.23;;;8.30;86.10;8.60;100693.00;;;;341320;28;91291;-85
2021/03/01 00:30:55;;;;;;;25.55;19.95;;;8.30;86.10;8.70;100698.00;;;;339839;28;96896;-83
2021/03/01 00:31:07;;;;;;;25.05;19.13;;;8.30;86.10;8.60;100699.00;;;;339887;28;91987;-83
2021/03/01 00:31:18;;;;;;;24.30;20.23;;;8.40;86.20;8.70;100702.00;;;;342484;28;97148;-83
2021/03/01 00:31:30;;;;;;;22.73;19.63;;;8.40;86.80;8.80;100701.00;;;;342478;28;92017;-83
2021/03/01 00:31:41;;;;;;;23.40;19.55;;;8.40;86.10;8.80;100704.00;;;;341220;28;96645;-83
2021/03/01 00:31:53;;;;;;;22.95;19.70;;;8.40;86.10;8.70;100703.00;;;;339860;28;91994;-82
2021/03/01 00:32:05;;;;;;;24.88;20.63;;;8.40;86.10;8.60;100705.00;;;;342543;28;97062;-84
2021/03/01 00:32:16;;;;;;;25.10;19.67;;;8.40;86.10;8.80;100692.00;;;;342941;28;92138;-85
2021/03/01 00:32:28;;;;;;;28.70;20.35;;;8.40;86.10;8.90;100705.00;;;;342370;28;93869;-84
2021/03/01 00:32:39;;;;;;;27.70;20.52;;;8.40;86.10;8.90;100705.00;;;;339774;28;91326;-84
2021/03/01 00:32:51;;;;;;;26.02;20.55;;;8.40;86.10;8.90;100699.00;;;;339788;28;96750;-83
2021/03/01 00:33:03;;;;;;;24.27;20.58;;;8.40;86.10;8.90;100699.00;;;;342492;28;92287;-83
2021/03/01 00:33:14;;;;;;;25.58;20.45;;;8.50;86.10;8.90;100709.00;;;;342570;28;95015;-83
2021/03/01 00:33:26;;;;;;;26.48;20.60;;;8.50;85.90;8.80;100702.00;;;;340952;28;92154;-83
2021/03/01 00:33:37;;;;;;;25.35;19.65;;;8.50;85.70;8.80;100707.00;;;;339771;28;97197;-83
2021/03/01 00:33:49;;;;;;;24.45;19.85;;;8.50;85.80;8.90;100701.00;;;;341227;28;92027;-83
2021/03/01 00:34:00;;;;;;;24.83;20.35;;;8.50;85.50;8.90;100707.00;;;;341202;28;97081;-83
2021/03/01 00:34:11;;;;;;;26.10;21.00;;;8.50;85.60;8.90;100699.00;;;;340997;28;92921;-83
2021/03/01 00:34:23;;;;;;;25.90;20.50;;;8.60;85.60;8.90;100704.00;;;;341179;28;97109;-82
2021/03/01 00:34:34;;;;;;;26.58;20.00;;;8.60;85.50;9.00;100705.00;;;;341260;28;91216;-83
2021/03/01 00:34:46;;;;;;;26.38;19.60;;;8.60;85.50;9.00;100708.00;;;;341248;28;96556;-83
2021/03/01 00:34:57;;;;;;;25.95;19.65;;;8.60;85.40;9.00;100705.00;;;;342445;28;92063;-83
2021/03/01 00:35:10;;;;;;;27.60;20.00;;;8.60;85.40;8.90;100701.00;;;;339578;28;96752;-86
2021/03/01 00:35:21;;;;;;;29.44;21.22;;;8.60;85.20;8.80;100698.00;;;;342295;28;92103;-83
2021/03/01 00:35:33;;;;;;;29.42;22.23;;;8.60;85.10;8.80;100704.00;;;;339783;28;93304;-84
2021/03/01 00:35:44;;;;;;;29.30;22.73;;;8.60;85.10;8.80;100715.00;;;;341866;28;91982;-84
2021/03/01 00:35:57;;;;;;;28.63;22.80;;;8.60;85.10;8.90;100703.00;;;;342593;28;96805;-83
2021/03/01 00:36:08;;;;;;;28.38;22.38;;;8.60;84.90;8.90;100705.00;;;;341155;28;91131;-84
2021/03/01 00:36:20;;;;;;;26.88;21.40;;;8.60;84.90;8.90;100706.00;;;;341039;28;96857;-84
2021/03/01 00:36:31;;;;;;;25.60;20.70;;;8.60;84.80;8.90;100707.00;;;;338637;28;90658;-84
2021/03/01 00:36:42;;;;;;;24.67;20.27;;;8.60;84.90;8.90;100714.00;;;;338646;28;93697;-83
2021/03/01 00:36:54;;;;;;;24.73;20.88;;;8.60;84.90;8.90;100706.00;;;;342556;28;91972;-83
2021/03/01 00:37:05;;;;;;;25.33;20.85;;;8.60;84.90;8.90;100718.00;;;;341173;28;97887;-83
2021/03/01 00:37:16;;;;;;;26.52;21.60;;;8.60;84.90;8.80;100706.00;;;;339746;28;92031;-83
2021/03/01 00:37:28;;;;;;;25.70;21.17;;;8.60;85.10;8.80;100703.00;;;;341168;28;97300;-83
2021/03/01 00:37:39;;;;;;;26.02;21.58;;;8.60;85.00;8.90;100712.00;;;;341155;28;91952;-83
2021/03/01 00:37:51;;;;;;;26.15;21.27;;;8.60;85.00;9.00;100714.00;;;;339961;28;94186;-83
2021/03/01 00:38:02;;;;;;;27.20;20.13;;;8.60;85.50;9.00;100706.00;;;;339895;28;91118;-84
2021/03/01 00:38:13;;;;;;;27.42;20.42;;;8.60;85.20;9.10;100717.00;;;;340163;28;96898;-82
2021/03/01 00:38:26;;;;;;;23.80;19.65;;;8.60;85.10;9.10;100717.00;;;;338872;28;91204;-83
2021/03/01 00:38:37;;;;;;;23.95;20.20;;;8.70;85.20;9.00;100709.00;;;;342641;28;94014;-83
2021/03/01 00:38:49;;;;;;;24.73;20.13;;;8.60;85.00;8.90;100717.00;;;;338469;28;92080;-83
2021/03/01 00:39:00;;;;;;;26.23;20.75;;;8.60;85.10;8.70;100708.00;;;;338518;28;94497;-84
2021/03/01 00:39:12;;;;;;;27.25;21.55;;;8.60;85.30;8.70;100710.00;;;;342604;28;92023;-83
2021/03/01 00:39:23;;;;;;;26.48;21.30;;;8.60;85.20;8.70;100713.00;;;;342339;28;97791;-84
2021/03/01 00:39:34;;;;;;;26.90;19.65;;;8.60;85.20;8.90;100708.00;;;;342526;28;92286;-84
2021/03/01 00:39:46;;;;;;;25.83;19.00;;;8.60;85.10;8.90;100707.00;;;;342643;28;94224;-82
2021/03/01 00:39:57;;;;;;;24.30;19.48;;;8.60;85.00;8.90;100709.00;;;;339827;28;92003;-83
2021/03/01 00:40:09;;;;;;;24.92;20.42;;;8.60;84.80;9.00;100702.00;;;;339790;28;97167;-84
2021/03/01 00:40:21;;;;;;;25.30;20.10;;;8.60;84.80;9.00;100707.00;;;;339755;28;91300;-83
2021/03/01 00:40:32;;;;;;;23.83;19.92;;;8.60;84.80;8.80;100709.00;;;;341434;28;91492;-85
2021/03/01 00:40:43;;;;;;;23.67;20.10;;;8.60;85.00;8.90;100710.00;;;;341226;28;91950;-83
2021/03/01 00:40:55;;;;;;;24.40;20.20;;;8.60;84.90;8.90;100711.00;;;;341174;28;95449;-83
2021/03/01 00:41:06;;;;;;;25.44;20.10;;;8.60;84.90;9.00;100709.00;;;;337167;28;92268;-83
2021/03/01 00:41:18;;;;;;;27.25;19.90;;;8.60;84.80;8.90;100715.00;;;;339457;28;101371;-83
2021/03/01 00:41:29;;;;;;;25.98;19.73;;;8.60;85.40;8.90;100703.00;;;;341162;28;91244;-83
2021/03/01 00:41:40;;;;;;;24.75;19.38;;;8.60;84.70;8.90;100707.00;;;;343765;28;97057;-84
2021/03/01 00:41:52;;;;;;;22.83;18.83;;;8.60;84.70;8.90;100711.00;;;;342670;28;92261;-85
2021/03/01 00:42:03;;;;;;;25.45;19.33;;;8.60;84.70;8.80;100707.00;;;;342293;28;97357;-85
2021/03/01 00:42:15;;;;;;;27.15;20.42;;;8.60;85.00;8.60;100717.00;;;;340910;28;92132;-83
2021/03/01 00:42:26;;;;;;;27.83;20.80;;;8.60;85.30;8.50;100705.00;;;;341169;28;95993;-84
2021/03/01 00:42:37;;;;;;;26.88;20.48;;;8.60;85.30;8.50;100704.00;;;;342562;28;92036;-83
2021/03/01 00:42:49;;;;;;;25.55;20.60;;;8.50;85.30;8.60;100709.00;;;;341126;28;97571;-83
2021/03/01 00:43:00;;;;;;;25.05;20.33;;;8.60;85.40;8.70;100704.00;;;;339765;28;92050;-83
2021/03/01 00:43:11;;;;;;;25.08;20.52;;;8.50;85.30;8.80;100702.00;;;;339970;28;94752;-84
2021/03/01 00:43:23;;;;;;;25.30;21.20;;;8.50;85.10;8.60;100708.00;;;;341182;28;92095;-83
2021/03/01 00:43:34;;;;;;;26.40;22.05;;;8.50;85.30;8.50;100704.00;;;;340916;28;95881;-84
2021/03/01 00:43:46;;;;;;;26.20;21.73;;;8.50;85.50;8.40;100703.00;;;;339815;28;91976;-83
2021/03/01 00:43:57;;;;;;;25.38;20.52;;;8.50;85.50;8.50;100695.00;;;;342622;28;96885;-83
2021/03/01 00:44:09;;;;;;;24.42;19.95;;;8.50;85.50;8.50;100707.00;;;;339746;28;90390;-83
2021/03/01 00:44:21;;;;;;;25.80;20.88;;;8.50;85.60;8.40;100697.00;;;;342267;28;96433;-83
2021/03/01 00:44:32;;;;;;;26.33;21.52;;;8.50;85.70;8.50;100690.00;;;;341081;28;92173;-84
2021/03/01 00:44:43;;;;;;;26.58;21.38;;;8.50;85.70;8.40;100710.00;;;;343931;28;97457;-83
2021/03/01 00:44:55;;;;;;;27.13;21.38;;;8.40;85.70;8.40;100703.00;;;;342416;28;92137;-83
2021/03/01 00:45:07;;;;;;;29.40;21.50;;;8.40;85.60;8.40;100705.00;;;;341032;28;97402;-83
2021/03/01 00:45:18;;;;;;;29.42;20.95;;;8.40;85.70;8.40;100702.00;;;;343858;28;92038;-83
2021/03/01 00:45:30;;;;;;;28.38;20.50;;;8.40;85.70;8.30;100709.00;;;;343842;28;96489;-83
2021/03/01 00:45:42;;;;;;;27.17;20.48;;;8.40;85.80;8.30;100707.00;;;;340988;28;91193;-85
2021/03/01 00:45:53;;;;;;;23.08;19.75;;;8.40;85.90;8.20;100709.00;;;;341130;28;97096;-83
2021/03/01 00:46:05;;;;;;;24.70;20.33;;;8.40;85.90;8.20;100707.00;;;;342474;28;91337;-84
2021/03/01 00:46:16;;;;;;;25.20;21.33;;;8.40;86.10;8.30;100709.00;;;;341211;28;96637;-83
2021/03/01 00:46:27;;;;;;;25.48;20.92;;;8.30;85.90;8.50;100705.00;;;;339855;28;91993;-83
2021/03/01 00:46:39;;;;;;;23.55;19.13;;;8.30;85.90;8.60;100711.00;;;;341208;28;96774;-84
2021/03/01 00:46:50;;;;;;;24.67;19.38;;;8.30;85.90;8.70;100705.00;;;;341116;28;91181;-83
2021/03/01 00:47:02;;;;;;;24.60;19.42;;;8.40;85.90;8.60;100708.00;;;;341089;28;97627;-83
2021/03/01 00:47:13;;;;;;;25.33;19.58;;;8.40;86.10;8.50;100706.00;;;;340803;28;91346;-83
2021/03/01 00:47:26;;;;;;;25.45;19.98;;;8.30;86.00;8.50;100698.00;;;;338840;28;96645;-83
2021/03/01 00:47:38;;;;;;;23.40;20.25;;;8.30;85.90;8.50;100706.00;;;;342521;28;92106;-83
2021/03/01 00:47:50;;;;;;;23.63;20.90;;;8.30;85.90;8.50;100705.00;;;;343697;28;97491;-87
2021/03/01 00:48:01;;;;;;;24.00;20.45;;;8.30;85.80;8.40;100707.00;;;;341184;28;91192;-84
2021/03/01 00:48:13;;;;;;;24.23;20.38;;;8.30;86.10;8.50;100700.00;;;;343708;28;96510;-83
2021/03/01 00:48:26;;;;;;;23.25;20.60;;;8.30;86.00;8.50;100705.00;;;;342390;28;92151;-83
2021/03/01 00:48:37;;;;;;;25.10;21.12;;;8.30;85.90;8.50;100697.00;;;;339881;28;97084;-83
2021/03/01 00:48:49;;;;;;;24.48;20.75;;;8.30;85.90;8.40;100715.00;;;;338552;28;92027;-83
2021/03/01 00:49:00;;;;;;;24.85;20.85;;;8.30;85.90;8.40;100708.00;;;;342192;28;96669;-83
2021/03/01 00:49:12;;;;;;;24.13;20.45;;;8.30;86.00;8.60;100708.00;;;;342517;28;92035;-83
2021/03/01 00:49:23;;;;;;;26.98;21.13;;;8.30;86.10;8.70;100707.00;;;;341228;28;97074;-83
2021/03/01 00:49:34;;;;;;;26.27;20.55;;;8.30;86.10;8.70;100711.00;;;;341064;28;92112;-83
2021/03/01 00:49:46;;;;;;;25.38;20.65;;;8.40;86.20;8.80;100702.00;;;;343958;28;96664;-83
2021/03/01 00:49:57;;;;;;;25.20;20.13;;;8.40;86.10;8.80;100710.00;;;;339928;28;91170;-83
2021/03/01 00:50:09;;;;;;;25.95;20.08;;;8.40;86.80;8.70;100707.00;;;;339750;28;94058;-84
2021/03/01 00:50:21;;;;;;;26.10;20.40;;;8.40;86.30;8.60;100713.00;;;;342227;28;92100;-83
2021/03/01 00:50:32;;;;;;;26.17;20.80;;;8.40;86.10;8.50;100712.00;;;;341069;28;97713;-83
2021/03/01 00:50:43;;;;;;;26.95;20.55;;;8.40;86.00;8.60;100718.00;;;;342575;28;91973;-83
2021/03/01 00:50:55;;;;;;;25.60;20.10;;;8.40;85.90;8.60;100709.00;;;;341227;28;94224;-83
2021/03/01 00:51:10;;;;;;;25.48;19.05;;;8.40;85.80;8.70;100704.00;;;;341080;28;92156;-87
2021/03/01 00:51:21;;;;;;;26.70;19.08;;;8.40;85.80;8.80;100709.00;;;;343962;28;97175;-83
2021/03/01 00:51:32;;;;;;;26.05;19.27;;;8.40;85.80;8.70;100704.00;;;;342469;28;92057;-85
2021/03/01 00:51:44;;;;;;;26.13;20.23;;;8.40;85.90;8.60;100713.00;;;;342643;28;94391;-83